Time;durP1;ratioP1;P1;durP2;ratioP2;P2;SDS_P1;SDS_P2;PMS_P1;PMS_P2;Temp;Humidity;BMP_temperature;BMP_pressure;BME280_temperature;BME280_humidity;BME280_pressure;Samples;Min_cycle;Max_cycle;Signal;HPM_P1;HPM_P2
2022/11/15 00:00:21;;;;;;;7.60;6.47;;;;;;;8.75;100.00;96532.78;4981048;28;20193;-69
2022/11/15 00:02:46;;;;;;;9.60;5.93;;;;;;;8.81;100.00;96539.75;4976045;28;20216;-69
2022/11/15 00:05:12;;;;;;;9.50;6.13;;;;;;;8.83;100.00;96534.31;4976155;28;20216;-69
2022/11/15 00:07:37;;;;;;;6.57;5.90;;;;;;;8.85;100.00;96540.13;4982978;28;20264;-69
2022/11/15 00:10:03;;;;;;;6.00;5.50;;;;;;;8.94;100.00;96530.94;4970247;28;20751;-69
2022/11/15 00:12:28;;;;;;;5.97;5.47;;;;;;;8.92;100.00;96527.75;4975837;28;20192;-71
2022/11/15 00:14:54;;;;;;;5.93;5.43;;;;;;;8.99;100.00;96541.53;4975734;28;20661;-70
2022/11/15 00:17:19;;;;;;;6.53;5.43;;;;;;;8.91;100.00;96541.84;4962758;28;20219;-70
2022/11/15 00:19:44;;;;;;;6.20;5.70;;;;;;;8.87;100.00;96533.63;4975660;28;20181;-69
2022/11/15 00:22:10;;;;;;;5.63;5.17;;;;;;;8.77;100.00;96534.19;4975335;28;20247;-69
2022/11/15 00:24:35;;;;;;;6.00;5.60;;;;;;;8.78;100.00;96527.13;4975368;28;20271;-69
2022/11/15 00:27:01;;;;;;;6.17;5.57;;;;;;;8.82;100.00;96532.72;4976414;28;20180;-70
2022/11/15 00:29:26;;;;;;;6.27;5.70;;;;;;;8.77;100.00;96531.56;4987226;28;20240;-69
2022/11/15 00:31:52;;;;;;;6.57;5.77;;;;;;;8.76;100.00;96522.13;4975157;28;20189;-68
2022/11/15 00:34:17;;;;;;;6.80;6.10;;;;;;;8.89;100.00;96520.34;4975406;28;20191;-68
2022/11/15 00:36:42;;;;;;;7.33;6.83;;;;;;;8.96;100.00;96524.50;4977372;28;20597;-69
2022/11/15 00:39:08;;;;;;;6.57;6.07;;;;;;;8.98;100.00;96519.81;4994485;28;20650;-69
2022/11/15 00:41:33;;;;;;;6.60;6.00;;;;;;;8.97;100.00;96514.84;4994431;28;20711;-70
2022/11/15 00:43:58;;;;;;;5.60;5.10;;;;;;;9.04;100.00;96518.94;4994327;28;20216;-68
2022/11/15 00:46:24;;;;;;;6.20;5.60;;;;;;;9.03;100.00;96517.31;4978787;28;20224;-70
2022/11/15 00:48:49;;;;;;;6.27;5.77;;;;;;;9.06;100.00;96511.66;4975207;28;20184;-69
2022/11/15 00:51:14;;;;;;;6.50;6.00;;;;;;;9.05;100.00;96510.06;4957821;28;20279;-69
2022/11/15 00:53:40;;;;;;;5.60;5.10;;;;;;;9.04;100.00;96505.84;4975233;28;20646;-69
2022/11/15 00:56:05;;;;;;;6.47;5.87;;;;;;;9.01;100.00;96511.53;4986756;28;20211;-69
2022/11/15 00:58:31;;;;;;;7.53;4.90;;;;;;;8.97;100.00;96499.91;4994385;28;20192;-69
2022/11/15 01:00:56;;;;;;;6.20;5.70;;;;;;;8.90;100.00;96506.28;4992378;28;20212;-69
2022/11/15 01:03:22;;;;;;;5.93;5.43;;;;;;;8.89;100.00;96496.84;4978468;28;20239;-68
2022/11/15 01:05:47;;;;;;;5.80;5.40;;;;;;;8.85;100.00;96504.34;4984051;28;20203;-68
2022/11/15 01:08:16;;;;;;;5.53;5.13;;;;;;;8.82;100.00;96494.31;4994122;28;20242;-69
2022/11/15 01:10:42;;;;;;;5.83;5.27;;;;;;;8.92;100.00;96494.56;4993899;28;20192;-69
2022/11/15 01:13:07;;;;;;;5.27;4.83;;;;;;;8.90;100.00;96491.41;4975290;28;20223;-69
2022/11/15 01:15:33;;;;;;;5.97;5.57;;;;;;;8.88;100.00;96490.81;4981647;28;20195;-69
2022/11/15 01:17:58;;;;;;;7.20;6.57;;;;;;;8.74;100.00;96490.22;4981960;28;20246;-69
2022/11/15 01:20:24;;;;;;;7.23;6.83;;;;;;;8.72;100.00;96489.63;4977956;28;20203;-68
2022/11/15 01:22:49;;;;;;;8.77;8.13;;;;;;;8.70;100.00;96480.41;4957128;28;20204;-68
2022/11/15 01:25:14;;;;;;;9.47;8.57;;;;;;;8.65;100.00;96481.06;4974688;28;20177;-69
2022/11/15 01:27:40;;;;;;;6.50;5.67;;;;;;;8.44;100.00;96483.38;4974115;28;20609;-68
2022/11/15 01:30:06;;;;;;;6.60;4.93;;;;;;;8.36;100.00;96484.47;4984274;28;20619;-69
2022/11/15 01:32:31;;;;;;;5.33;4.93;;;;;;;8.39;100.00;96478.00;4993605;28;20192;-69
2022/11/15 01:34:56;;;;;;;7.20;5.73;;;;;;;8.34;100.00;96470.84;4993545;28;20199;-69
2022/11/15 01:37:22;;;;;;;6.33;5.20;;;;;;;8.13;100.00;96477.28;4993655;28;20234;-69
2022/11/15 01:39:47;;;;;;;5.37;4.97;;;;;;;8.15;100.00;96479.66;4985071;28;20193;-69
2022/11/15 01:42:13;;;;;;;5.70;4.87;;;;;;;8.11;100.00;96486.34;4973775;28;20208;-69
2022/11/15 01:44:49;;;;;;;8.40;7.70;;;;;;;8.00;100.00;96477.44;4971960;28;20243;-68
2022/11/15 01:47:21;;;;;;;7.93;7.10;;;;;;;7.86;100.00;96475.97;4987013;28;20187;-69
2022/11/15 01:49:57;;;;;;;7.87;7.17;;;;;;;7.83;100.00;96481.63;4985289;28;20184;-68
2022/11/15 01:52:26;;;;;;;7.43;6.73;;;;;;;7.91;100.00;96476.91;4973775;28;20679;-70
2022/11/15 01:55:17;;;;;;;8.57;6.80;;;;;;;7.84;100.00;96470.97;4990312;28;20198;-71
2022/11/15 01:57:46;;;;;;;7.13;6.53;;;;;;;7.72;100.00;96470.09;4993306;28;20230;-69
2022/11/15 02:00:12;;;;;;;7.53;6.83;;;;;;;7.73;100.00;96468.28;4981978;28;20203;-68
2022/11/15 02:02:39;;;;;;;7.53;6.83;;;;;;;7.77;100.00;96467.63;4974120;28;20212;-68
2022/11/15 02:05:04;;;;;;;7.23;6.63;;;;;;;7.81;100.00;96462.78;4991402;28;20184;-69
2022/11/15 02:07:31;;;;;;;7.87;7.27;;;;;;;7.82;100.00;96457.34;4971672;28;20219;-68
2022/11/15 02:10:02;;;;;;;8.17;7.57;;;;;;;7.76;100.00;96460.00;4983060;28;20270;-68
2022/11/15 02:12:27;;;;;;;10.63;7.80;;;;;;;7.74;100.00;96455.03;4993257;28;20190;-68
2022/11/15 02:14:54;;;;;;;8.60;7.93;;;;;;;7.76;100.00;96452.19;4992719;28;20188;-69
2022/11/15 02:17:32;;;;;;;9.27;8.50;;;;;;;7.82;100.00;96451.31;4983599;28;20260;-69
2022/11/15 02:20:35;;;;;;;7.60;6.90;;;;;;;7.89;100.00;96450.25;4973871;28;20196;-68
2022/11/15 02:23:25;;;;;;;6.57;5.97;;;;;;;7.89;100.00;96455.47;4979214;28;20249;-69
2022/11/15 02:26:22;;;;;;;7.17;6.33;;;;;;;8.00;100.00;96443.50;4992766;28;20194;-69
2022/11/15 02:28:59;;;;;;;6.30;5.70;;;;;;;8.04;100.00;96438.63;4989865;28;20231;-70
2022/11/15 02:31:43;;;;;;;6.13;5.53;;;;;;;8.02;100.00;96432.84;4975390;28;20186;-69
2022/11/15 02:34:46;;;;;;;6.23;5.70;;;;;;;8.07;100.00;96433.78;4978642;28;20196;-69
2022/11/15 02:37:21;;;;;;;6.33;5.93;;;;;;;8.02;100.00;96433.66;4932756;28;20208;-69
2022/11/15 02:39:54;;;;;;;6.33;5.83;;;;;;;7.96;100.00;96426.69;4993065;28;20171;-68
2022/11/15 02:45:24;;;;;;;6.23;5.83;;;;;;;7.97;100.00;96427.50;4993026;28;20207;-68
2022/11/15 02:47:54;;;;;;;4.80;4.50;;;;;;;7.96;100.00;96425.91;4983238;28;20192;-68
2022/11/15 02:50:24;;;;;;;6.80;6.30;;;;;;;8.04;100.00;96421.16;4993175;28;20257;-68
2022/11/15 02:52:50;;;;;;;5.53;5.17;;;;;;;8.07;100.00;96414.72;4990185;28;20202;-69
2022/11/15 02:55:50;;;;;;;6.23;5.63;;;;;;;8.06;100.00;96402.69;4973231;28;20683;-68
2022/11/15 02:58:15;;;;;;;5.20;4.73;;;;;;;8.08;100.00;96411.88;4935830;28;20257;-69
2022/11/15 03:00:52;;;;;;;5.70;5.20;;;;;;;8.12;100.00;96401.81;4977399;28;20181;-68
2022/11/15 03:03:18;;;;;;;6.00;5.50;;;;;;;8.24;100.00;96402.66;4994001;28;20567;-70
2022/11/15 03:06:02;;;;;;;5.97;5.43;;;;;;;8.29;100.00;96408.00;4996432;28;20181;-68
2022/11/15 03:08:48;;;;;;;7.13;6.60;;;;;;;8.31;100.00;96403.38;4994767;28;20633;-68
2022/11/15 03:11:17;;;;;;;7.87;7.37;;;;;;;8.28;100.00;96402.00;4995577;28;20180;-69
2022/11/15 03:13:55;;;;;;;8.83;8.23;;;;;;;8.30;100.00;96401.81;4989666;28;20193;-68
2022/11/15 03:16:31;;;;;;;8.00;7.43;;;;;;;8.31;100.00;96400.78;4976904;28;20181;-68
2022/11/15 03:19:27;;;;;;;8.00;7.50;;;;;;;8.20;100.00;96396.28;4992408;28;20172;-68
2022/11/15 03:21:55;;;;;;;5.93;5.43;;;;;;;8.10;100.00;96385.56;4994393;28;20184;-69
2022/11/15 03:24:24;;;;;;;5.77;5.27;;;;;;;8.07;100.00;96388.63;4978408;28;20605;-68
2022/11/15 03:26:53;;;;;;;5.97;5.57;;;;;;;8.08;100.00;96391.00;4995679;28;20180;-69
2022/11/15 03:29:30;;;;;;;7.27;6.10;;;;;;;8.03;100.00;96390.84;4942778;28;20315;-69
2022/11/15 03:32:01;;;;;;;6.47;5.97;;;;;;;7.98;100.00;96388.13;4976788;28;20184;-69
2022/11/15 03:34:35;;;;;;;6.93;6.27;;;;;;;7.97;100.00;96388.34;4986383;28;20183;-70
2022/11/15 03:37:01;;;;;;;6.23;5.83;;;;;;;7.84;100.00;96389.31;4987640;28;20295;-69
2022/11/15 03:39:28;;;;;;;6.27;5.77;;;;;;;7.77;100.00;96391.97;4976408;28;20283;-68
2022/11/15 03:41:56;;;;;;;6.10;5.50;;;;;;;7.75;100.00;96374.94;4959004;28;20271;-68
2022/11/15 03:44:41;;;;;;;8.27;6.53;;;;;;;7.89;100.00;96379.81;4986012;28;20258;-68
2022/11/15 03:47:16;;;;;;;5.73;5.03;;;;;;;7.88;100.00;96367.78;4966089;28;20531;-68
2022/11/15 03:49:50;;;;;;;5.67;5.27;;;;;;;7.94;100.00;96368.69;4981599;28;20171;-69
2022/11/15 03:52:18;;;;;;;6.70;6.10;;;;;;;7.97;100.00;96368.25;4995362;28;20707;-68
2022/11/15 03:55:04;;;;;;;6.07;5.57;;;;;;;7.87;100.00;96363.56;4993288;28;20241;-69
2022/11/15 03:57:29;;;;;;;6.30;5.57;;;;;;;7.87;100.00;96368.78;4960897;28;20196;-69
2022/11/15 03:59:55;;;;;;;7.60;6.53;;;;;;;7.76;100.00;96372.13;4976207;28;20264;-69
2022/11/15 04:02:20;;;;;;;7.10;6.50;;;;;;;7.70;100.00;96367.78;4975822;28;20208;-70
2022/11/15 04:04:45;;;;;;;6.57;6.07;;;;;;;7.68;100.00;96369.81;4975924;28;20592;-69
2022/11/15 04:07:11;;;;;;;6.43;5.87;;;;;;;7.66;100.00;96364.03;4992355;28;20580;-68
2022/11/15 04:12:30;;;;;;;6.87;6.37;;;;;;;7.62;100.00;96364.69;4995003;28;20199;-68
2022/11/15 04:15:09;;;;;;;7.47;6.87;;;;;;;7.60;100.00;96358.88;4994769;28;20186;-69
2022/11/15 04:17:48;;;;;;;8.30;7.57;;;;;;;7.67;100.00;96359.59;4975292;28;20276;-69
2022/11/15 04:25:53;;;;;;;7.17;6.60;;;;;;;7.50;100.00;96356.78;4974338;28;20183;-68
2022/11/15 04:28:19;;;;;;;7.43;6.73;;;;;;;7.56;100.00;96355.13;4994598;28;20239;-68
2022/11/15 04:30:45;;;;;;;7.63;6.70;;;;;;;7.57;100.00;96356.72;4982028;28;20197;-68
2022/11/15 04:33:10;;;;;;;6.77;6.27;;;;;;;7.61;100.00;96353.44;4975098;28;20185;-68
2022/11/15 04:35:35;;;;;;;8.77;8.03;;;;;;;7.67;100.00;96359.59;4981856;28;20274;-69
2022/11/15 04:38:03;;;;;;;7.33;6.73;;;;;;;7.63;100.00;96354.03;4993192;28;20192;-69
2022/11/15 04:40:28;;;;;;;7.37;6.77;;;;;;;7.59;100.00;96359.88;4984965;28;20187;-69
2022/11/15 04:42:53;;;;;;;6.70;6.30;;;;;;;7.62;100.00;96351.63;4974908;28;20216;-69
2022/11/15 04:45:19;;;;;;;7.13;6.67;;;;;;;7.61;100.00;96340.41;4975816;28;20185;-70
2022/11/15 04:47:45;;;;;;;7.13;6.53;;;;;;;7.57;100.00;96349.69;4975044;28;20192;-68
2022/11/15 04:50:14;;;;;;;6.77;6.27;;;;;;;7.53;100.00;96345.91;4957780;28;20196;-69
2022/11/15 04:52:49;;;;;;;5.97;5.53;;;;;;;7.57;100.00;96349.69;4975157;28;20184;-69
2022/11/15 04:55:15;;;;;;;6.27;5.77;;;;;;;7.64;100.00;96339.16;4975343;28;20586;-68
2022/11/15 04:57:40;;;;;;;6.10;5.70;;;;;;;7.66;100.00;96340.53;4993377;28;20190;-68
2022/11/15 05:00:12;;;;;;;6.90;6.03;;;;;;;7.71;100.00;96337.28;4994008;28;20188;-68
2022/11/15 05:05:21;;;;;;;8.43;7.83;;;;;;;7.92;100.00;96328.97;4992283;28;20231;-69
2022/11/15 05:07:46;;;;;;;7.03;6.63;;;;;;;8.00;100.00;96333.91;4975202;28;20192;-69
2022/11/15 05:10:12;;;;;;;6.10;5.70;;;;;;;8.01;100.00;96332.09;4992290;28;20211;-68
2022/11/15 05:12:37;;;;;;;7.13;6.63;;;;;;;8.06;100.00;96332.22;4993916;28;20194;-68
2022/11/15 05:15:03;;;;;;;7.03;6.53;;;;;;;8.13;100.00;96325.91;4983198;28;20180;-70
2022/11/15 05:17:29;;;;;;;6.93;6.07;;;;;;;8.22;100.00;96319.34;4990904;28;20223;-70
2022/11/15 05:19:54;;;;;;;6.33;5.83;;;;;;;8.20;100.00;96316.13;4971528;28;20215;-68
2022/11/15 05:22:20;;;;;;;6.00;5.60;;;;;;;8.23;100.00;96323.53;4993449;28;20211;-68
2022/11/15 05:24:45;;;;;;;5.40;5.00;;;;;;;8.22;100.00;96323.75;4993882;28;20191;-68
2022/11/15 05:27:11;;;;;;;6.67;6.17;;;;;;;8.17;100.00;96328.84;4993658;28;20211;-68
2022/11/15 05:29:36;;;;;;;5.67;5.17;;;;;;;8.17;100.00;96328.84;4991255;28;20232;-69
2022/11/15 05:32:05;;;;;;;5.87;5.20;;;;;;;8.15;100.00;96325.66;4974237;28;20189;-69
2022/11/15 05:34:31;;;;;;;5.30;4.90;;;;;;;8.15;100.00;96320.44;4974046;28;20196;-69
2022/11/15 05:36:56;;;;;;;5.70;5.30;;;;;;;8.10;100.00;96320.31;4975008;28;20181;-69
2022/11/15 05:39:21;;;;;;;6.63;6.13;;;;;;;8.00;100.00;96320.84;4974404;28;20609;-69
2022/11/15 05:41:52;;;;;;;11.80;11.00;;;;;;;7.79;100.00;96322.13;4980998;28;20621;-68
2022/11/15 05:44:20;;;;;;;7.20;6.70;;;;;;;7.69;100.00;96311.41;4991404;28;20568;-69
2022/11/15 05:46:47;;;;;;;7.83;7.23;;;;;;;7.70;100.00;96313.00;4966862;28;20207;-70
2022/11/15 05:49:18;;;;;;;7.57;7.03;;;;;;;7.69;100.00;96310.63;4992812;28;20184;-69
2022/11/15 05:51:45;;;;;;;8.53;7.83;;;;;;;7.44;100.00;96305.50;4963272;28;20641;-68
2022/11/15 05:54:11;;;;;;;7.97;7.30;;;;;;;7.43;100.00;96309.91;4973849;28;20181;-70
2022/11/15 05:56:37;;;;;;;9.00;8.33;;;;;;;7.39;100.00;96297.53;4993092;28;20648;-69
2022/11/15 05:59:03;;;;;;;9.37;8.67;;;;;;;7.39;100.00;96308.78;4992227;28;20188;-69
2022/11/15 06:01:28;;;;;;;8.97;8.20;;;;;;;7.32;100.00;96304.63;4984821;28;20185;-69
2022/11/15 06:03:54;;;;;;;11.50;10.37;;;;;;;7.24;100.00;96303.13;4992776;28;20207;-69
2022/11/15 06:06:19;;;;;;;11.07;10.13;;;;;;;7.28;100.00;96308.69;4976064;28;20216;-69
2022/11/15 06:08:44;;;;;;;11.17;10.03;;;;;;;7.31;100.00;96308.25;4956562;28;20275;-69
2022/11/15 06:11:10;;;;;;;11.77;10.57;;;;;;;7.37;100.00;96307.38;4973579;28;20191;-69
2022/11/15 06:13:35;;;;;;;12.30;11.20;;;;;;;7.26;100.00;96306.31;4992139;28;20220;-70
2022/11/15 06:16:01;;;;;;;10.40;9.13;;;;;;;7.41;100.00;96309.31;4992041;28;20275;-69
2022/11/15 06:18:26;;;;;;;9.57;8.70;;;;;;;7.45;100.00;96312.31;4992309;28;20230;-69
2022/11/15 06:20:52;;;;;;;9.33;8.43;;;;;;;7.46;100.00;96317.31;4990662;28;20192;-69
2022/11/15 06:23:17;;;;;;;9.80;8.83;;;;;;;7.47;100.00;96310.28;4974061;28;20255;-69
2022/11/15 06:25:43;;;;;;;8.63;7.97;;;;;;;7.39;100.00;96311.38;4973617;28;20577;-69
2022/11/15 06:28:08;;;;;;;8.67;7.97;;;;;;;7.34;100.00;96308.63;4973518;28;20196;-69
2022/11/15 06:30:33;;;;;;;8.80;8.10;;;;;;;7.39;100.00;96318.41;4973553;28;20203;-68
2022/11/15 06:33:04;;;;;;;9.13;8.43;;;;;;;7.36;100.00;96316.22;4987493;28;20614;-70
2022/11/15 06:35:30;;;;;;;8.90;8.10;;;;;;;7.47;100.00;96312.88;4995795;28;20203;-69
2022/11/15 06:38:01;;;;;;;7.90;7.30;;;;;;;7.50;100.00;96320.28;4996538;28;20191;-69
2022/11/15 06:40:26;;;;;;;8.33;7.57;;;;;;;7.38;100.00;96315.00;4995585;28;20297;-69
2022/11/15 06:42:58;;;;;;;9.10;7.37;;;;;;;7.41;100.00;96317.16;4995554;28;20614;-70
2022/11/15 06:45:23;;;;;;;7.93;7.23;;;;;;;7.38;100.00;96316.81;4993243;28;20215;-69
2022/11/15 06:47:48;;;;;;;8.27;7.57;;;;;;;7.45;100.00;96320.94;4995932;28;20212;-69
2022/11/15 06:50:14;;;;;;;9.37;7.97;;;;;;;7.51;100.00;96320.06;4989330;28;20189;-68
2022/11/15 06:52:39;;;;;;;8.30;7.60;;;;;;;7.56;100.00;96322.00;4994730;28;20193;-69
2022/11/15 06:55:05;;;;;;;8.50;7.70;;;;;;;7.52;100.00;96324.25;4995850;28;20203;-68
2022/11/15 06:57:32;;;;;;;20.97;19.43;;;;;;;7.63;100.00;96327.16;4996116;28;20180;-62
2022/11/15 06:59:57;;;;;;;9.53;8.80;;;;;;;7.64;100.00;96326.91;4991877;28;20220;-68
2022/11/15 07:02:22;;;;;;;16.13;14.93;;;;;;;7.74;100.00;96329.03;4992157;28;20203;-70
2022/11/15 07:04:48;;;;;;;9.00;8.20;;;;;;;7.81;100.00;96325.31;4995651;28;20222;-68
2022/11/15 07:07:13;;;;;;;11.50;10.37;;;;;;;7.74;100.00;96322.00;4994263;28;20268;-68
2022/11/15 07:09:38;;;;;;;8.43;7.73;;;;;;;7.74;100.00;96322.00;4979226;28;20536;-68
2022/11/15 07:12:04;;;;;;;7.70;7.10;;;;;;;7.81;100.00;96329.72;4981396;28;20661;-68
2022/11/15 07:14:29;;;;;;;7.87;7.07;;;;;;;7.83;100.00;96330.31;4995528;28;20688;-67
2022/11/15 07:16:54;;;;;;;8.30;7.50;;;;;;;7.92;100.00;96323.75;4967834;28;20692;-70
2022/11/15 07:19:20;;;;;;;9.53;8.83;;;;;;;8.07;100.00;96334.63;4976704;28;20188;-67
2022/11/15 07:21:45;;;;;;;9.13;8.30;;;;;;;8.12;100.00;96342.56;4978088;28;20189;-70
2022/11/15 07:24:10;;;;;;;10.57;9.53;;;;;;;8.11;100.00;96335.75;4995709;28;20204;-68
2022/11/15 07:26:36;;;;;;;9.07;8.27;;;;;;;8.21;100.00;96330.78;4987925;28;20193;-69
2022/11/15 07:29:01;;;;;;;8.17;7.37;;;;;;;8.39;100.00;96329.97;4986480;28;20314;-70
2022/11/15 07:31:27;;;;;;;7.73;7.13;;;;;;;8.41;100.00;96327.16;4995846;28;20188;-69
2022/11/15 07:33:52;;;;;;;8.23;7.43;;;;;;;8.39;100.00;96326.56;4994806;28;20605;-69
2022/11/15 07:36:17;;;;;;;8.97;8.17;;;;;;;8.55;100.00;96324.09;4994297;28;20194;-69
2022/11/15 07:38:43;;;;;;;7.53;6.73;;;;;;;8.63;100.00;96321.16;4996398;28;20219;-69
2022/11/15 07:41:08;;;;;;;7.00;6.40;;;;;;;8.93;100.00;96328.09;4995571;28;20267;-69
2022/11/15 07:43:34;;;;;;;7.13;6.57;;;;;;;9.10;100.00;96323.78;4994703;28;20649;-69
2022/11/15 07:46:04;;;;;;;7.23;6.70;;;;;;;9.35;100.00;96313.09;4988915;28;20192;-70
2022/11/15 07:48:30;;;;;;;9.33;8.53;;;;;;;9.65;100.00;96315.50;4977909;28;20529;-69
2022/11/15 07:50:56;;;;;;;18.50;17.20;;;;;;;9.68;100.00;96315.84;4995065;28;20199;-69
2022/11/15 07:53:21;;;;;;;11.60;10.67;;;;;;;9.94;100.00;96317.91;4994616;28;20238;-71
2022/11/15 07:55:46;;;;;;;9.20;8.53;;;;;;;10.06;100.00;96306.59;4991432;28;20188;-69
2022/11/15 07:58:12;;;;;;;11.07;10.27;;;;;;;10.20;100.00;96302.69;4988109;28;20188;-69
2022/11/15 08:00:38;;;;;;;12.07;11.00;;;;;;;10.34;100.00;96307.41;4976602;28;20545;-71
2022/11/15 08:03:08;;;;;;;22.60;21.10;;;;;;;10.57;98.90;96303.84;4983191;28;20227;-71
2022/11/15 08:05:35;;;;;;;11.20;10.40;;;;;;;10.50;97.84;96302.41;4979216;28;20204;-70
2022/11/15 08:08:01;;;;;;;8.87;8.17;;;;;;;10.56;97.82;96304.06;4976120;28;20197;-69
2022/11/15 08:10:27;;;;;;;10.37;9.43;;;;;;;10.35;98.34;96295.09;4958674;28;20239;-70
2022/11/15 08:13:00;;;;;;;7.13;6.53;;;;;;;10.27;99.69;96292.84;4975770;28;20181;-71
2022/11/15 08:15:27;;;;;;;7.37;6.73;;;;;;;10.37;99.55;96301.69;4984040;28;20224;-71
2022/11/15 08:17:57;;;;;;;7.63;7.03;;;;;;;10.66;98.24;96288.50;4975671;28;20176;-69
2022/11/15 08:20:23;;;;;;;6.87;6.37;;;;;;;10.64;96.83;96296.63;4993495;28;20203;-69
2022/11/15 08:22:48;;;;;;;6.43;5.83;;;;;;;10.76;96.48;96283.41;4994915;28;20188;-69
2022/11/15 08:25:13;;;;;;;10.93;10.17;;;;;;;11.04;98.31;96278.06;4980508;28;20196;-70
2022/11/15 08:27:39;;;;;;;10.10;9.30;;;;;;;11.34;97.12;96282.91;4986356;28;20267;-70
2022/11/15 08:30:05;;;;;;;10.93;10.10;;;;;;;11.57;94.04;96280.06;4994431;28;20228;-70
2022/11/15 08:32:31;;;;;;;20.33;19.07;;;;;;;11.13;95.45;96286.31;4994444;28;20188;-69
2022/11/15 08:34:56;;;;;;;24.87;23.13;;;;;;;10.84;95.05;96285.66;4987960;28;20192;-70
2022/11/15 08:37:22;;;;;;;29.80;28.10;;;;;;;10.96;94.59;96270.63;4992312;28;20202;-69
2022/11/15 08:39:47;;;;;;;21.17;19.97;;;;;;;10.92;95.52;96273.97;4992918;28;20381;-69
2022/11/15 08:42:14;;;;;;;9.17;8.33;;;;;;;10.90;95.86;96276.03;4994819;28;20326;-70
2022/11/15 08:44:40;;;;;;;7.30;6.70;;;;;;;10.81;96.44;96267.78;4986550;28;20543;-70
2022/11/15 08:47:05;;;;;;;7.20;6.47;;;;;;;10.70;97.37;96272.06;4974856;28;20196;-69
2022/11/15 08:49:30;;;;;;;6.77;6.17;;;;;;;10.79;96.17;96270.63;4991487;28;20188;-69
2022/11/15 08:51:56;;;;;;;8.20;7.50;;;;;;;10.76;97.77;96265.06;4994272;28;20191;-68
2022/11/15 08:54:21;;;;;;;9.10;8.40;;;;;;;10.76;97.50;96259.81;4985416;28;20204;-69
2022/11/15 08:56:46;;;;;;;8.30;7.63;;;;;;;10.68;99.85;96255.00;4975619;28;20181;-69
2022/11/15 08:59:12;;;;;;;13.93;12.83;;;;;;;10.85;99.94;96253.16;4979561;28;20239;-70
2022/11/15 09:01:37;;;;;;;13.67;11.33;;;;;;;10.68;100.00;96245.31;4993951;28;20212;-69
2022/11/15 09:04:03;;;;;;;13.30;12.33;;;;;;;10.81;100.00;96254.69;4988983;28;20240;-69
2022/11/15 09:06:29;;;;;;;15.43;14.37;;;;;;;10.67;99.04;96250.78;4975033;28;20173;-69
2022/11/15 09:08:54;;;;;;;8.07;7.27;;;;;;;10.77;97.04;96243.88;4981177;28;20247;-69
2022/11/15 09:11:21;;;;;;;8.17;7.57;;;;;;;11.01;96.70;96243.66;4975096;28;20196;-70
2022/11/15 09:13:47;;;;;;;7.00;6.50;;;;;;;11.12;96.02;96251.44;4974215;28;20262;-69
2022/11/15 09:16:12;;;;;;;6.27;5.87;;;;;;;11.00;95.81;96252.56;4958585;28;20181;-69
2022/11/15 09:18:38;;;;;;;13.50;12.57;;;;;;;11.18;94.64;96252.28;4981295;28;20230;-70
2022/11/15 09:21:04;;;;;;;17.20;16.10;;;;;;;11.14;95.37;96248.56;4989692;28;20195;-69
2022/11/15 09:23:29;;;;;;;14.63;13.60;;;;;;;11.19;95.35;96248.63;4993816;28;20287;-69
2022/11/15 09:26:02;;;;;;;12.97;12.13;;;;;;;11.25;95.51;96253.69;4978637;28;20181;-70
2022/11/15 09:28:28;;;;;;;20.03;18.80;;;;;;;11.30;96.43;96249.53;4956817;28;20224;-69
2022/11/15 09:31:02;;;;;;;13.30;12.30;;;;;;;11.32;95.39;96248.25;4979635;28;20180;-69
2022/11/15 09:33:28;;;;;;;14.40;13.40;;;;;;;11.09;96.30;96251.13;4992255;28;20299;-69
2022/11/15 09:35:54;;;;;;;18.00;16.80;;;;;;;11.25;96.31;96248.47;4992906;28;20184;-69
2022/11/15 09:38:20;;;;;;;23.50;21.80;;;;;;;11.60;94.58;96249.88;4993526;28;20188;-69
2022/11/15 09:40:52;;;;;;;18.03;16.87;;;;;;;11.58;94.12;96244.91;4993139;28;20653;-69
2022/11/15 09:43:30;;;;;;;29.27;27.50;;;;;;;11.80;91.93;96242.28;4975910;28;20286;-69
2022/11/15 09:46:14;;;;;;;17.90;16.87;;;;;;;11.76;89.51;96243.03;4970192;28;20191;-69
2022/11/15 09:48:48;;;;;;;18.43;17.30;;;;;;;12.05;87.75;96239.88;4992758;28;20180;-69
2022/11/15 09:51:24;;;;;;;19.07;17.87;;;;;;;12.19;86.84;96242.13;4986868;28;20199;-69
2022/11/15 09:54:02;;;;;;;22.17;20.87;;;;;;;12.17;86.22;96234.47;4980318;28;20176;-69
2022/11/15 09:56:34;;;;;;;18.40;17.10;;;;;;;12.31;85.44;96237.50;4983139;28;20239;-69
2022/11/15 09:59:25;;;;;;;17.07;16.07;;;;;;;12.37;85.62;96232.00;4986336;28;20223;-69
2022/11/15 10:01:58;;;;;;;18.33;17.23;;;;;;;12.50;85.23;96228.97;4993163;28;20172;-69
2022/11/15 10:04:26;;;;;;;17.23;16.10;;;;;;;12.31;87.12;96222.53;4984506;28;20195;-69
2022/11/15 10:07:06;;;;;;;17.50;16.27;;;;;;;12.32;85.86;96223.28;4978910;28;20727;-70
2022/11/15 10:09:42;;;;;;;13.43;12.43;;;;;;;12.68;84.62;96227.78;4973885;28;20180;-70
2022/11/15 10:12:09;;;;;;;14.83;13.77;;;;;;;12.56;85.35;96224.53;4974942;28;20179;-70
2022/11/15 10:14:35;;;;;;;14.23;13.20;;;;;;;12.77;85.77;96218.34;4976330;28;20184;-69
2022/11/15 10:17:18;;;;;;;14.30;13.30;;;;;;;12.80;86.51;96217.88;4977406;28;20191;-69
2022/11/15 10:19:56;;;;;;;9.37;8.67;;;;;;;12.91;87.04;96202.94;4973813;28;20176;-69
2022/11/15 10:22:49;;;;;;;12.13;11.30;;;;;;;12.96;87.09;96221.38;4990751;28;20183;-68
2022/11/15 10:25:17;;;;;;;17.70;16.60;;;;;;;13.10;86.40;96219.84;4965517;28;20208;-69
2022/11/15 10:27:47;;;;;;;20.40;19.10;;;;;;;13.07;87.61;96206.41;4973547;28;20555;-69
2022/11/15 10:30:16;;;;;;;12.50;11.60;;;;;;;13.19;87.80;96202.56;4980961;28;20238;-68
2022/11/15 10:32:43;;;;;;;7.03;6.43;;;;;;;13.33;87.86;96194.97;4966334;28;20224;-68
2022/11/15 10:35:25;;;;;;;7.03;6.43;;;;;;;13.33;88.00;96194.97;4989099;28;20192;-68
2022/11/15 10:37:51;;;;;;;7.10;6.67;;;;;;;13.24;89.39;96189.44;4975533;28;20503;-69
2022/11/15 10:40:23;;;;;;;8.63;7.73;;;;;;;13.26;88.88;96187.31;4984136;28;20295;-70
2022/11/15 10:43:09;;;;;;;8.40;7.33;;;;;;;13.21;88.57;96184.66;4949297;28;20202;-70
2022/11/15 10:45:35;;;;;;;9.10;8.50;;;;;;;13.12;88.80;96177.53;4980212;28;20331;-70
2022/11/15 10:48:12;;;;;;;7.37;6.77;;;;;;;13.12;89.67;96178.31;4974075;28;20638;-73
2022/11/15 10:50:49;;;;;;;12.40;11.43;;;;;;;13.15;89.74;96175.16;4986245;28;20209;-71
2022/11/15 10:53:27;;;;;;;15.50;14.40;;;;;;;13.21;88.99;96175.97;4940469;28;20534;-68
2022/11/15 10:55:55;;;;;;;16.27;15.17;;;;;;;13.46;87.29;96173.44;4984871;28;20479;-68
2022/11/15 10:58:22;;;;;;;14.37;13.27;;;;;;;13.39;88.03;96174.72;4973605;28;20181;-68
2022/11/15 11:00:48;;;;;;;11.50;10.80;;;;;;;13.30;88.00;96172.59;4973977;28;20185;-69
2022/11/15 11:03:34;;;;;;;13.23;12.20;;;;;;;13.27;87.97;96172.31;4973343;28;20207;-69
2022/11/15 11:06:17;;;;;;;12.77;11.33;;;;;;;13.04;88.51;96170.88;4973829;28;20252;-69
2022/11/15 11:09:22;;;;;;;10.70;9.87;;;;;;;13.16;88.02;96165.44;4973579;28;20189;-69
2022/11/15 11:11:49;;;;;;;11.27;10.37;;;;;;;13.15;87.99;96161.25;4966829;28;20284;-69
2022/11/15 11:14:25;;;;;;;12.53;11.57;;;;;;;13.06;88.64;96160.91;4982119;28;20228;-68
2022/11/15 11:16:53;;;;;;;20.27;18.97;;;;;;;12.88;90.50;96159.50;4973323;28;20669;-70
2022/11/15 11:19:31;;;;;;;43.80;41.30;;;;;;;12.87;91.86;96157.16;4974642;28;20279;-69
2022/11/15 11:22:05;;;;;;;54.23;51.17;;;;;;;12.96;91.64;96157.44;4986091;28;20180;-69
2022/11/15 11:25:04;;;;;;;12.03;11.17;;;;;;;13.09;88.86;96157.78;4985084;28;20204;-69
2022/11/15 11:28:02;;;;;;;10.63;9.93;;;;;;;13.23;86.80;96152.84;4982471;28;20207;-69
2022/11/15 11:30:42;;;;;;;11.13;8.40;;;;;;;13.07;87.18;96149.34;4986260;28;20219;-70
2022/11/15 11:33:17;;;;;;;9.43;8.80;;;;;;;13.24;86.21;96151.78;4977388;28;20283;-70
2022/11/15 11:35:45;;;;;;;10.43;9.70;;;;;;;13.33;85.69;96143.13;4976896;28;20239;-69
2022/11/15 11:38:27;;;;;;;16.83;15.83;;;;;;;13.30;84.93;96142.88;4977783;28;20191;-69
2022/11/15 11:41:01;;;;;;;21.13;19.93;;;;;;;13.22;84.78;96140.72;4994349;28;20180;-70
2022/11/15 11:43:51;;;;;;;23.57;22.13;;;;;;;13.36;85.13;96128.66;4995671;28;20206;-69
2022/11/15 11:47:01;;;;;;;22.53;21.00;;;;;;;13.41;84.94;96131.31;4992868;28;20188;-70
2022/11/15 11:49:39;;;;;;;11.33;8.07;;;;;;;13.57;87.97;96122.38;4958981;28;20207;-69
2022/11/15 11:52:16;;;;;;;13.20;11.63;;;;;;;13.55;87.58;96123.69;4978462;28;20183;-70
2022/11/15 11:54:56;;;;;;;14.63;13.73;;;;;;;13.59;87.19;96108.97;4976513;28;20576;-70